createdAt,value
2019-02-25T00:01:43.880Z,49.20
2019-02-25T00:04:20.469Z,49.40
2019-02-25T00:06:56.767Z,53.20
2019-02-25T00:09:32.153Z,53.60
2019-02-25T00:12:07.531Z,52.90
2019-02-25T00:14:42.945Z,53.00
2019-02-25T00:17:18.642Z,53.70
2019-02-25T00:19:53.935Z,52.60
2019-02-25T00:22:29.051Z,52.70
2019-02-25T00:25:04.892Z,52.70
2019-02-25T00:27:39.966Z,53.40
2019-02-25T00:30:15.945Z,52.90
2019-02-25T00:32:51.362Z,52.30
2019-02-25T00:35:29.290Z,52.20
2019-02-25T00:38:04.341Z,52.40
2019-02-25T00:40:39.756Z,52.90
2019-02-25T00:43:14.815Z,53.40
2019-02-25T00:45:49.854Z,55.30
2019-02-25T00:48:25.277Z,56.20
2019-02-25T00:51:01.754Z,56.40
2019-02-25T00:53:38.177Z,56.20
2019-02-25T00:56:13.277Z,56.10
2019-02-25T00:58:48.306Z,57.30
2019-02-25T01:01:23.336Z,58.80
2019-02-25T01:03:58.481Z,59.00
2019-02-25T01:06:33.510Z,57.80
2019-02-25T01:09:09.032Z,57.70
2019-02-25T01:11:44.638Z,57.10
2019-02-25T01:14:19.768Z,56.40
2019-02-25T01:16:55.317Z,54.90
2019-02-25T01:19:31.478Z,54.90
2019-02-25T01:22:07.028Z,55.80
2019-02-25T01:24:42.611Z,57.10
2019-02-25T01:27:17.897Z,57.70
2019-02-25T01:29:52.985Z,56.80
2019-02-25T01:32:29.080Z,56.40
2019-02-25T01:35:08.257Z,56.30
2019-02-25T01:37:43.287Z,58.70
2019-02-25T01:40:18.360Z,60.10
2019-02-25T01:42:53.515Z,60.00
2019-02-25T01:45:28.982Z,59.70
2019-02-25T01:48:04.073Z,59.20
2019-02-25T01:50:40.214Z,60.40
2019-02-25T01:53:15.352Z,61.60
2019-02-25T01:55:50.491Z,61.60
2019-02-25T01:58:26.364Z,59.70
2019-02-25T02:01:01.476Z,58.60
2019-02-25T02:03:36.572Z,58.90
2019-02-25T02:06:11.760Z,58.70
2019-02-25T02:08:46.952Z,58.40
2019-02-25T02:11:22.516Z,58.20
2019-02-25T02:13:57.663Z,59.00
2019-02-25T02:16:32.866Z,59.90
2019-02-25T02:19:08.372Z,59.10
2019-02-25T02:21:43.532Z,60.50
2019-02-25T02:24:19.127Z,60.30
2019-02-25T02:26:54.261Z,60.60
2019-02-25T02:29:29.769Z,60.50
2019-02-25T02:32:05.929Z,59.80
2019-02-25T02:34:41.091Z,59.50
2019-02-25T02:37:16.171Z,61.00
2019-02-25T02:39:51.551Z,61.90
2019-02-25T02:42:26.690Z,62.20
2019-02-25T02:45:02.273Z,61.70
2019-02-25T02:47:43.506Z,61.00
2019-02-25T02:50:21.959Z,61.10
2019-02-25T02:52:57.133Z,60.90
2019-02-25T02:55:32.313Z,61.00
2019-02-25T02:58:07.379Z,60.90
2019-02-25T03:00:42.900Z,60.90
2019-02-25T03:03:18.091Z,62.20
2019-02-25T03:05:53.660Z,61.10
2019-02-25T03:08:28.774Z,62.10
2019-02-25T03:11:05.239Z,61.40
2019-02-25T03:13:40.281Z,61.90
2019-02-25T03:16:15.658Z,63.90
2019-02-25T03:18:51.119Z,63.60
2019-02-25T03:21:26.783Z,62.80
2019-02-25T03:24:01.819Z,64.90
2019-02-25T03:26:37.264Z,65.30
2019-02-25T03:29:12.352Z,64.80
2019-02-25T03:31:47.778Z,64.10
2019-02-25T03:34:23.789Z,64.10
2019-02-25T03:36:58.806Z,62.90
2019-02-25T03:39:34.018Z,62.50
2019-02-25T03:42:09.129Z,64.40
2019-02-25T03:44:44.276Z,64.40
2019-02-25T03:47:19.431Z,65.00
2019-02-25T03:49:54.585Z,63.60
2019-02-25T03:52:29.767Z,61.80
2019-02-25T03:55:08.250Z,61.80
2019-02-25T03:57:43.550Z,62.40
2019-02-25T04:00:21.306Z,62.20
2019-02-25T04:02:56.511Z,60.10
2019-02-25T04:05:31.994Z,59.00
2019-02-25T04:08:07.449Z,58.60
2019-02-25T04:10:42.633Z,60.30
2019-02-25T04:13:17.825Z,59.80
2019-02-25T04:15:53.094Z,59.30
2019-02-25T04:18:28.186Z,59.20
2019-02-25T04:21:03.284Z,60.20
2019-02-25T04:23:38.411Z,59.70
2019-02-25T04:26:13.938Z,59.00
2019-02-25T04:28:49.364Z,58.50
2019-02-25T04:31:26.444Z,57.90
2019-02-25T04:34:01.523Z,58.20
2019-02-25T04:36:36.653Z,58.10
2019-02-25T04:39:11.707Z,59.50
2019-02-25T04:41:46.920Z,58.90
2019-02-25T04:44:23.192Z,58.40
2019-02-25T04:46:58.279Z,57.90
2019-02-25T04:49:33.970Z,57.80
2019-02-25T04:52:09.093Z,60.60
2019-02-25T04:54:44.138Z,60.60
2019-02-25T04:57:19.242Z,60.00
2019-02-25T04:59:54.308Z,59.20
2019-02-25T05:02:29.381Z,59.00
2019-02-25T05:05:04.957Z,59.10
2019-02-25T05:07:40.310Z,59.30
2019-02-25T05:10:16.659Z,59.30
2019-02-25T05:12:59.499Z,59.00
2019-02-25T05:15:39.957Z,58.80
2019-02-25T05:18:14.959Z,59.00
2019-02-25T05:20:49.991Z,59.10
2019-02-25T05:23:25.473Z,59.00
2019-02-25T05:26:00.540Z,61.00
2019-02-25T05:28:36.630Z,61.80
2019-02-25T05:31:11.684Z,62.90
2019-02-25T05:33:46.752Z,61.90
2019-02-25T05:36:21.850Z,60.70
2019-02-25T05:38:58.678Z,60.20
2019-02-25T05:41:34.982Z,60.60
2019-02-25T05:44:10.113Z,60.80
2019-02-25T05:46:45.267Z,60.70
2019-02-25T05:49:20.298Z,60.60
2019-02-25T05:51:55.494Z,60.60
2019-02-25T05:54:30.648Z,61.00
2019-02-25T05:57:06.153Z,61.30
2019-02-25T05:59:41.888Z,61.00
2019-02-25T06:02:17.483Z,60.90
2019-02-25T06:04:52.641Z,61.20
2019-02-25T06:07:27.750Z,62.10
2019-02-25T06:10:04.473Z,62.90
2019-02-25T06:12:40.877Z,62.40
2019-02-25T06:15:20.344Z,61.80
2019-02-25T06:17:55.773Z,61.80
2019-02-25T06:20:31.363Z,61.50
2019-02-25T06:23:06.524Z,61.70
2019-02-25T06:25:42.674Z,61.30
2019-02-25T06:28:17.872Z,61.40
2019-02-25T06:30:53.450Z,61.70
2019-02-25T06:33:28.561Z,61.60
2019-02-25T06:36:06.305Z,61.50
2019-02-25T06:38:41.526Z,62.00
2019-02-25T06:41:16.778Z,61.00
2019-02-25T06:43:53.056Z,61.00
2019-02-25T06:46:28.697Z,60.20
2019-02-25T06:49:03.998Z,60.00
2019-02-25T06:51:39.479Z,60.00
2019-02-25T06:54:15.017Z,59.90
2019-02-25T06:56:50.442Z,59.30
2019-02-25T06:59:25.611Z,59.10
2019-02-25T07:02:01.119Z,58.50
2019-02-25T07:04:37.997Z,57.60
2019-02-25T07:07:15.362Z,55.40
2019-02-25T07:09:54.858Z,51.60
2019-02-25T07:12:35.026Z,48.10
2019-02-25T07:15:15.360Z,45.80
2019-02-25T07:18:06.843Z,44.00
2019-02-25T07:20:44.590Z,42.50
2019-02-25T07:23:21.605Z,40.30
2019-02-25T07:26:11.480Z,38.90
2019-02-25T07:28:49.830Z,37.90
2019-02-25T07:31:26.754Z,36.80
2019-02-25T07:34:09.902Z,36.50
2019-02-25T07:36:53.939Z,35.00
2019-02-25T07:39:36.547Z,34.20
2019-02-25T07:42:16.901Z,33.40
2019-02-25T07:44:53.772Z,33.00
2019-02-25T07:47:34.281Z,31.80
2019-02-25T07:50:13.933Z,31.10
2019-02-25T07:53:05.122Z,30.60
2019-02-25T07:56:02.560Z,29.80
2019-02-25T07:58:43.931Z,29.90
2019-02-25T08:01:31.899Z,29.10
2019-02-25T08:04:08.581Z,29.30
2019-02-25T08:06:51.766Z,29.40
2019-02-25T08:09:29.007Z,29.90
2019-02-25T08:12:18.705Z,30.40
2019-02-25T08:14:55.385Z,31.10
2019-02-25T08:17:32.056Z,30.20
2019-02-25T08:20:14.839Z,29.80
2019-02-25T08:23:05.444Z,29.70
2019-02-25T08:26:00.615Z,29.80
2019-02-25T08:28:47.894Z,29.80
2019-02-25T08:31:24.682Z,29.20
2019-02-25T08:34:01.372Z,28.60
2019-02-25T08:37:02.562Z,28.70
2019-02-25T08:39:49.328Z,29.10
2019-02-25T08:42:34.531Z,29.40
2019-02-25T08:45:17.929Z,30.10
2019-02-25T08:48:07.574Z,29.90
2019-02-25T08:50:42.902Z,30.30
2019-02-25T08:53:21.129Z,29.80
2019-02-25T08:55:58.252Z,28.60
2019-02-25T08:58:34.467Z,28.20
2019-02-25T09:01:09.603Z,28.00
2019-02-25T09:03:47.097Z,27.60
2019-02-25T09:06:22.127Z,27.30
2019-02-25T09:09:00.054Z,27.00
2019-02-25T09:11:36.050Z,27.30
2019-02-25T09:14:11.466Z,27.80
2019-02-25T09:16:46.891Z,27.90
2019-02-25T09:19:21.921Z,28.00
2019-02-25T09:21:57.275Z,27.50
2019-02-25T09:24:33.643Z,27.40
2019-02-25T09:27:10.217Z,27.40
2019-02-25T09:29:45.334Z,27.20
2019-02-25T09:32:20.522Z,27.20
2019-02-25T09:34:56.876Z,26.90
2019-02-25T09:37:32.927Z,26.90
2019-02-25T09:40:19.087Z,27.40
2019-02-25T09:42:57.366Z,27.60
2019-02-25T09:45:32.458Z,27.40
2019-02-25T09:48:07.821Z,27.50
2019-02-25T09:50:42.877Z,27.80
2019-02-25T09:53:17.906Z,28.10
2019-02-25T09:55:53.042Z,28.50
2019-02-25T09:58:28.055Z,27.80
2019-02-25T10:01:05.680Z,27.30
2019-02-25T10:03:40.806Z,27.60
2019-02-25T10:06:15.903Z,27.80
2019-02-25T10:08:53.189Z,28.30
2019-02-25T10:11:28.203Z,29.30
2019-02-25T10:14:03.250Z,30.20
2019-02-25T10:16:39.004Z,31.60
2019-02-25T10:19:14.046Z,32.10
2019-02-25T10:21:51.437Z,32.30
2019-02-25T10:24:28.507Z,31.10
2019-02-25T10:27:04.137Z,29.50
2019-02-25T10:29:44.933Z,29.20
2019-02-25T10:32:21.221Z,29.20
2019-02-25T10:34:57.433Z,29.50
2019-02-25T10:37:36.297Z,30.70
2019-02-25T10:40:15.375Z,30.70
2019-02-25T10:42:52.588Z,30.70
2019-02-25T10:45:28.736Z,30.70
2019-02-25T10:48:03.778Z,30.50
2019-02-25T10:50:40.808Z,29.90
2019-02-25T10:53:18.318Z,28.30
2019-02-25T10:55:59.578Z,28.00
2019-02-25T10:58:37.838Z,28.00
2019-02-25T11:01:19.971Z,28.20
2019-02-25T11:03:54.677Z,27.70
2019-02-25T11:06:35.143Z,27.90
2019-02-25T11:09:24.840Z,28.70
2019-02-25T11:12:00.284Z,28.50
2019-02-25T11:14:40.922Z,28.20
2019-02-25T11:17:24.452Z,28.40
2019-02-25T11:20:03.733Z,28.80
2019-02-25T11:22:50.591Z,28.60
2019-02-25T11:25:30.216Z,28.40
2019-02-25T11:28:07.641Z,28.30
2019-02-25T11:30:43.282Z,28.40
2019-02-25T11:33:19.478Z,28.20
2019-02-25T11:35:54.522Z,28.70
2019-02-25T11:38:37.459Z,29.00
2019-02-25T11:41:13.523Z,29.00
2019-02-25T11:43:50.979Z,29.00
2019-02-25T11:46:28.261Z,29.00
2019-02-25T11:49:03.312Z,28.60
2019-02-25T11:51:40.394Z,28.50
2019-02-25T11:54:15.764Z,28.80
2019-02-25T11:56:51.797Z,29.10
2019-02-25T11:59:30.846Z,29.60
2019-02-25T12:02:05.875Z,29.40
2019-02-25T12:04:41.833Z,29.70
2019-02-25T12:07:19.034Z,29.90
2019-02-25T12:09:54.332Z,30.40
2019-02-25T12:12:29.726Z,30.60
2019-02-25T12:15:07.905Z,30.70
2019-02-25T12:17:45.109Z,31.70
2019-02-25T12:20:21.655Z,31.50
2019-02-25T12:22:56.702Z,31.80
2019-02-25T12:25:31.819Z,33.30
2019-02-25T12:28:10.657Z,35.10
2019-02-25T12:30:46.624Z,37.20
2019-02-25T12:33:27.685Z,40.20
2019-02-25T12:36:03.722Z,41.60
2019-02-25T12:38:38.999Z,43.20
2019-02-25T12:41:14.041Z,44.20
2019-02-25T12:43:49.367Z,45.30
2019-02-25T12:46:27.904Z,45.60
2019-02-25T12:49:02.960Z,45.30
2019-02-25T12:51:38.002Z,45.50
2019-02-25T12:54:13.068Z,45.70
2019-02-25T12:56:48.346Z,45.80
2019-02-25T12:59:23.412Z,45.80
2019-02-25T13:02:00.430Z,46.10
2019-02-25T13:04:35.567Z,46.10
2019-02-25T13:07:12.066Z,46.50
2019-02-25T13:09:47.358Z,46.60
2019-02-25T13:12:22.651Z,47.00
2019-02-25T13:14:57.975Z,47.10
2019-02-25T13:17:35.218Z,47.70
2019-02-25T13:20:12.158Z,47.90
2019-02-25T13:22:47.666Z,48.40
2019-02-25T13:25:25.289Z,48.40
2019-02-25T13:28:02.132Z,48.60
2019-02-25T13:30:38.319Z,48.90
2019-02-25T13:33:14.335Z,49.10
2019-02-25T13:35:49.786Z,49.20
2019-02-25T13:38:25.532Z,49.40
2019-02-25T13:41:01.645Z,49.60
2019-02-25T13:43:36.770Z,49.90
2019-02-25T13:46:11.913Z,50.10
2019-02-25T13:48:47.582Z,50.00
2019-02-25T13:51:24.866Z,50.30
2019-02-25T13:54:02.424Z,50.20
2019-02-25T13:56:37.565Z,50.30
2019-02-25T13:59:12.706Z,50.60
2019-02-25T14:01:48.714Z,50.80
2019-02-25T14:04:23.853Z,51.00
2019-02-25T14:06:59.008Z,50.80
2019-02-25T14:09:34.131Z,51.00
2019-02-25T14:12:10.209Z,50.70
2019-02-25T14:14:45.641Z,50.80
2019-02-25T14:17:20.811Z,51.80
2019-02-25T14:19:56.266Z,51.90
2019-02-25T14:22:32.356Z,52.30
2019-02-25T14:25:12.518Z,51.90
2019-02-25T14:27:47.867Z,52.00
2019-02-25T14:30:27.932Z,52.30
2019-02-25T14:33:04.386Z,52.60
2019-02-25T14:35:40.727Z,52.70
2019-02-25T14:38:17.995Z,52.60
2019-02-25T14:40:54.074Z,52.60
2019-02-25T14:43:31.038Z,52.90
2019-02-25T14:46:07.654Z,52.50
2019-02-25T14:48:45.228Z,52.20
2019-02-25T14:51:21.279Z,52.50
2019-02-25T14:53:57.043Z,52.90
2019-02-25T14:56:32.408Z,52.90
2019-02-25T14:59:07.871Z,52.10
2019-02-25T15:01:44.769Z,52.20
2019-02-25T15:04:19.970Z,52.40
2019-02-25T15:06:56.959Z,52.90
2019-02-25T15:09:33.165Z,53.10
2019-02-25T15:12:09.755Z,53.30
2019-02-25T15:14:45.550Z,53.10
2019-02-25T15:17:20.598Z,53.20
2019-02-25T15:19:55.739Z,53.40
2019-02-25T15:22:32.063Z,53.50
2019-02-25T15:25:11.114Z,53.70
2019-02-25T15:27:47.179Z,54.00
2019-02-25T15:30:30.413Z,54.00
2019-02-25T15:33:04.961Z,53.80
2019-02-25T15:35:41.701Z,53.20
2019-02-25T15:38:17.261Z,52.20
2019-02-25T15:40:56.049Z,51.90
2019-02-25T15:43:30.371Z,52.00
2019-02-25T15:46:05.830Z,51.90
2019-02-25T15:48:43.143Z,52.20
2019-02-25T15:51:19.215Z,51.20
2019-02-25T15:53:55.777Z,50.80
2019-02-25T15:56:33.696Z,51.10
2019-02-25T15:59:08.813Z,52.00
2019-02-25T16:01:45.278Z,52.50
2019-02-25T16:04:21.394Z,52.60
2019-02-25T16:06:57.639Z,52.90
2019-02-25T16:09:34.242Z,53.10
2019-02-25T16:12:09.737Z,52.80
2019-02-25T16:14:46.699Z,52.30
2019-02-25T16:17:22.341Z,52.00
2019-02-25T16:19:59.483Z,52.10
2019-02-25T16:22:36.003Z,52.00
2019-02-25T16:25:17.249Z,52.20
2019-02-25T16:27:54.142Z,52.30
2019-02-25T16:30:30.854Z,52.60
2019-02-25T16:33:07.827Z,52.90
2019-02-25T16:35:43.531Z,53.00
2019-02-25T16:38:23.079Z,53.10
2019-02-25T16:40:57.024Z,53.20
2019-02-25T16:43:33.614Z,53.10
2019-02-25T16:46:13.072Z,53.30
2019-02-25T16:48:46.317Z,54.20
2019-02-25T16:51:25.467Z,53.60
2019-02-25T16:54:01.003Z,53.70
2019-02-25T16:56:36.221Z,53.70
2019-02-25T16:59:13.310Z,53.70
2019-02-25T17:01:48.191Z,53.70
2019-02-25T17:04:25.061Z,53.80
2019-02-25T17:07:00.223Z,54.00
2019-02-25T17:09:39.156Z,54.30
2019-02-25T17:12:14.158Z,54.40
2019-02-25T17:14:49.674Z,55.10
2019-02-25T17:17:25.192Z,54.80
2019-02-25T17:20:00.622Z,55.00
2019-02-25T17:22:36.139Z,55.30
2019-02-25T17:25:13.188Z,56.10
2019-02-25T17:27:48.586Z,55.40
2019-02-25T17:30:25.844Z,55.80
2019-02-25T17:33:03.250Z,57.10
2019-02-25T17:35:38.458Z,56.80
2019-02-25T17:38:13.834Z,56.80
2019-02-25T17:40:49.218Z,56.60
2019-02-25T17:43:24.664Z,55.70
2019-02-25T17:46:00.349Z,55.50
2019-02-25T17:48:37.631Z,55.50
2019-02-25T17:51:12.774Z,55.60
2019-02-25T17:53:48.690Z,55.60
2019-02-25T17:56:25.289Z,55.40
2019-02-25T17:59:03.128Z,55.60
2019-02-25T18:01:40.346Z,56.30
2019-02-25T18:04:16.807Z,55.30
2019-02-25T18:06:52.196Z,55.20
2019-02-25T18:09:27.768Z,55.70
2019-02-25T18:12:04.306Z,55.80
2019-02-25T18:14:41.519Z,55.70
2019-02-25T18:17:17.472Z,55.30
2019-02-25T18:19:54.543Z,54.00
2019-02-25T18:22:32.496Z,55.00
2019-02-25T18:25:09.887Z,53.80
2019-02-25T18:27:48.295Z,53.90
2019-02-25T18:30:27.584Z,54.70
2019-02-25T18:33:05.184Z,54.60
2019-02-25T18:35:41.637Z,53.70
2019-02-25T18:38:17.486Z,53.50
2019-02-25T18:40:52.910Z,53.70
2019-02-25T18:43:28.689Z,54.60
2019-02-25T18:46:07.027Z,54.90
2019-02-25T18:48:43.398Z,55.00
2019-02-25T18:51:19.740Z,54.90
2019-02-25T18:53:55.458Z,55.10
2019-02-25T18:56:33.564Z,55.30
2019-02-25T18:59:14.884Z,55.50
2019-02-25T19:01:47.659Z,55.70
2019-02-25T19:04:22.983Z,55.90
2019-02-25T19:06:59.765Z,56.00
2019-02-25T19:09:36.148Z,56.20
2019-02-25T19:12:13.214Z,56.20
2019-02-25T19:14:51.090Z,56.40
2019-02-25T19:17:25.902Z,56.50
2019-02-25T19:20:01.950Z,56.50
2019-02-25T19:22:39.807Z,56.60
2019-02-25T19:25:20.052Z,56.70
2019-02-25T19:27:56.467Z,56.80
2019-02-25T19:30:34.363Z,56.80
2019-02-25T19:33:11.499Z,56.80
2019-02-25T19:35:46.302Z,56.80
2019-02-25T19:38:22.806Z,57.50
2019-02-25T19:40:58.233Z,56.90
2019-02-25T19:43:34.542Z,57.00
2019-02-25T19:46:11.039Z,57.00
2019-02-25T19:48:47.983Z,57.40
2019-02-25T19:51:25.112Z,57.50
2019-02-25T19:54:02.649Z,57.40
2019-02-25T19:56:36.700Z,57.90
2019-02-25T19:59:11.822Z,58.00
2019-02-25T20:01:46.891Z,57.50
2019-02-25T20:04:21.994Z,57.40
2019-02-25T20:06:58.559Z,57.30
2019-02-25T20:09:34.483Z,57.20
2019-02-25T20:12:09.616Z,57.10
2019-02-25T20:14:46.532Z,57.10
2019-02-25T20:17:22.336Z,57.10
2019-02-25T20:19:58.639Z,57.20
2019-02-25T20:22:35.021Z,57.10
2019-02-25T20:25:16.222Z,57.70
2019-02-25T20:27:50.856Z,57.20
2019-02-25T20:30:28.821Z,57.30
2019-02-25T20:33:06.927Z,57.30
2019-02-25T20:35:44.948Z,57.20
2019-02-25T20:38:22.521Z,57.30
2019-02-25T20:40:57.886Z,56.90
2019-02-25T20:43:33.435Z,57.00
2019-02-25T20:46:08.750Z,56.70
2019-02-25T20:48:46.488Z,56.50
2019-02-25T20:51:22.777Z,56.40
2019-02-25T20:53:58.283Z,56.50
2019-02-25T20:56:33.943Z,56.50
2019-02-25T20:59:09.949Z,56.60
2019-02-25T21:01:46.698Z,56.90
2019-02-25T21:04:22.346Z,56.80
2019-02-25T21:06:57.962Z,57.50
2019-02-25T21:09:34.050Z,57.20
2019-02-25T21:12:11.017Z,57.20
2019-02-25T21:14:47.368Z,57.20
2019-02-25T21:17:22.540Z,57.20
2019-02-25T21:19:59.831Z,57.30
2019-02-25T21:22:38.491Z,57.30
2019-02-25T21:25:15.292Z,57.30
2019-02-25T21:27:50.838Z,57.40
2019-02-25T21:30:26.008Z,57.40
2019-02-25T21:33:02.055Z,56.80
2019-02-25T21:35:39.589Z,56.90
2019-02-25T21:38:14.711Z,56.70
2019-02-25T21:40:52.769Z,56.10
2019-02-25T21:43:29.091Z,56.50
2019-02-25T21:46:06.661Z,56.10
2019-02-25T21:48:41.898Z,56.80
2019-02-25T21:51:18.338Z,56.20
2019-02-25T21:53:55.924Z,56.10
2019-02-25T21:56:30.536Z,56.40
2019-02-25T21:59:06.223Z,56.40
2019-02-25T22:01:42.797Z,56.10
2019-02-25T22:04:20.223Z,58.10
2019-02-25T22:06:55.779Z,57.30
2019-02-25T22:09:37.791Z,56.50
2019-02-25T22:12:08.969Z,56.40
2019-02-25T22:14:46.014Z,56.40
2019-02-25T22:17:22.992Z,57.90
2019-02-25T22:19:58.220Z,56.60
2019-02-25T22:22:37.511Z,56.80
2019-02-25T22:25:17.898Z,56.50
2019-02-25T22:27:53.269Z,56.50
2019-02-25T22:30:28.710Z,56.20
2019-02-25T22:33:04.922Z,56.40
2019-02-25T22:35:42.950Z,56.60
2019-02-25T22:38:18.256Z,56.80
2019-02-25T22:40:55.495Z,56.90
2019-02-25T22:43:30.799Z,57.10
2019-02-25T22:46:07.647Z,57.00
2019-02-25T22:48:44.961Z,57.10
2019-02-25T22:51:22.205Z,57.30
2019-02-25T22:53:58.192Z,57.60
2019-02-25T22:56:34.398Z,58.10
2019-02-25T22:59:09.877Z,57.90
2019-02-25T23:01:45.750Z,61.20
2019-02-25T23:04:24.209Z,58.60
2019-02-25T23:06:58.880Z,58.50
2019-02-25T23:09:34.044Z,58.80
2019-02-25T23:12:10.089Z,58.60
2019-02-25T23:14:45.297Z,58.60
2019-02-25T23:17:20.523Z,58.80
2019-02-25T23:19:55.756Z,58.70
2019-02-25T23:22:32.471Z,58.70
2019-02-25T23:25:12.422Z,58.70
2019-02-25T23:27:47.567Z,59.40
2019-02-25T23:30:23.466Z,60.50
2019-02-25T23:33:01.295Z,59.60
2019-02-25T23:35:40.799Z,58.90
2019-02-25T23:38:13.551Z,58.80
2019-02-25T23:40:48.709Z,58.90
2019-02-25T23:43:24.254Z,59.00
2019-02-25T23:46:02.168Z,59.10
2019-02-25T23:48:38.600Z,59.30
2019-02-25T23:51:16.524Z,59.50
2019-02-25T23:53:53.668Z,59.60
2019-02-25T23:56:29.660Z,59.80
2019-02-25T23:59:05.308Z,59.80
